Time;durP1;ratioP1;P1;durP2;ratioP2;P2;SDS_P1;SDS_P2;PMS_P1;PMS_P2;Temp;Humidity;BMP_temperature;BMP_pressure;BME280_temperature;BME280_humidity;BME280_pressure;Samples;Min_cycle;Max_cycle;Signal;HPM_P1;HPM_P2
2021/07/19 00:02:09;;;;;;;4.22;3.10;;;;;;;20.96;68.30;100770.03;4961379;28;20075;-82
2021/07/19 00:04:39;;;;;;;3.72;3.15;;;;;;;20.93;68.69;100770.31;4977045;28;20042;-81
2021/07/19 00:07:06;;;;;;;6.22;2.80;;;;;;;20.91;68.57;100771.44;4978535;28;20055;-82
2021/07/19 00:09:33;;;;;;;5.35;2.85;;;;;;;20.85;68.99;100766.53;4990831;28;20157;-82
2021/07/19 00:12:03;;;;;;;6.15;3.30;;;;;;;20.81;69.14;100767.78;4980437;28;20047;-81
2021/07/19 00:14:30;;;;;;;5.82;3.17;;;;;;;20.78;69.29;100766.19;4965869;28;20051;-81
2021/07/19 00:16:57;;;;;;;5.32;3.33;;;;;;;20.78;69.28;100766.19;4966686;28;20047;-82
2021/07/19 00:19:26;;;;;;;6.45;3.45;;;;;;;20.71;69.44;100777.63;4954427;28;20102;-81
2021/07/19 00:21:53;;;;;;;6.05;3.08;;;;;;;20.65;69.44;100763.69;4965378;28;20055;-81
2021/07/19 00:24:20;;;;;;;4.68;3.05;;;;;;;20.63;69.75;100772.84;4966189;29;20130;-82
2021/07/19 00:26:48;;;;;;;3.95;3.17;;;;;;;20.61;69.74;100780.22;4960296;28;20157;-82
2021/07/19 00:29:16;;;;;;;4.28;3.40;;;;;;;20.61;69.84;100780.22;4976400;28;20147;-82
2021/07/19 00:31:43;;;;;;;4.70;3.40;;;;;;;20.57;69.72;100771.53;4969215;28;20047;-81
2021/07/19 00:34:10;;;;;;;5.95;4.03;;;;;;;20.58;69.80;100767.88;4962189;28;20525;-82
2021/07/19 00:36:36;;;;;;;4.65;3.70;;;;;;;20.54;69.78;100769.09;4957643;28;20147;-81
2021/07/19 00:39:09;;;;;;;7.90;3.75;;;;;;;20.53;70.05;100767.38;4961087;28;20047;-82
2021/07/19 00:41:38;;;;;;;5.50;3.72;;;;;;;20.51;69.77;100772.03;4960753;28;20066;-82
2021/07/19 00:44:06;;;;;;;5.05;3.67;;;;;;;20.49;69.96;100770.44;4956173;28;20153;-82
2021/07/19 00:46:33;;;;;;;4.55;3.50;;;;;;;20.47;69.79;100761.66;4969721;28;20058;-81
2021/07/19 00:49:00;;;;;;;5.65;3.67;;;;;;;20.46;69.61;100768.03;4971604;28;20051;-81
2021/07/19 00:51:27;;;;;;;7.40;3.78;;;;;;;20.45;69.85;100756.44;4963071;28;20534;-81
2021/07/19 00:53:54;;;;;;;5.97;4.00;;;;;;;20.42;70.14;100761.19;4961193;29;20070;-82
2021/07/19 00:56:25;;;;;;;5.80;4.20;;;;;;;20.43;70.07;100760.22;4969449;28;20057;-81
2021/07/19 00:58:54;;;;;;;4.63;3.60;;;;;;;20.44;70.07;100759.22;4961003;29;20055;-82
2021/07/19 01:01:21;;;;;;;5.40;3.92;;;;;;;20.45;69.83;100752.88;4964272;28;20400;-81
2021/07/19 01:03:54;;;;;;;6.63;4.07;;;;;;;20.45;69.91;100759.13;4964389;28;20071;-82
2021/07/19 01:06:21;;;;;;;4.18;3.78;;;;;;;20.44;69.85;100754.72;4959582;28;20048;-81
2021/07/19 01:08:50;;;;;;;6.10;3.90;;;;;;;20.45;69.90;100752.88;4949360;29;20086;-81
2021/07/19 01:11:18;;;;;;;4.75;3.40;;;;;;;20.44;69.63;100757.41;4969360;28;20093;-82
2021/07/19 01:13:45;;;;;;;6.22;3.75;;;;;;;20.41;69.68;100752.28;4961991;28;20051;-82
2021/07/19 01:16:12;;;;;;;5.22;3.97;;;;;;;20.40;69.83;100755.94;4942401;29;20051;-82
2021/07/19 01:18:40;;;;;;;4.93;3.83;;;;;;;20.41;69.97;100757.66;4969484;29;20054;-81
2021/07/19 01:21:23;;;;;;;5.20;3.47;;;;;;;20.41;70.05;100756.78;4960347;28;20063;-81
2021/07/19 01:24:24;;;;;;;4.75;3.78;;;;;;;20.41;69.89;100759.47;4981403;28;20047;-81
2021/07/19 01:27:06;;;;;;;4.68;4.15;;;;;;;20.38;69.96;100763.28;4977856;28;20035;-81
2021/07/19 01:29:37;;;;;;;4.05;3.65;;;;;;;20.32;69.81;100751.13;4981277;28;20057;-81
2021/07/19 01:32:06;;;;;;;5.88;3.75;;;;;;;20.31;70.43;100756.63;4981554;28;20122;-81
2021/07/19 01:34:35;;;;;;;5.00;4.10;;;;;;;20.16;70.65;100745.31;4975315;28;20466;-81
2021/07/19 01:37:04;;;;;;;4.93;4.05;;;;;;;20.15;70.76;100750.81;4944649;29;20539;-81
2021/07/19 01:39:35;;;;;;;4.70;3.60;;;;;;;20.10;71.24;100753.88;4960707;29;20546;-81
2021/07/19 01:42:03;;;;;;;4.45;3.60;;;;;;;20.09;71.23;100745.94;4960140;28;20047;-81
2021/07/19 01:44:32;;;;;;;5.63;4.15;;;;;;;20.06;71.51;100736.28;4972047;28;20035;-81
2021/07/19 01:47:06;;;;;;;4.45;3.60;;;;;;;20.05;71.58;100736.41;4986392;28;20585;-81
2021/07/19 01:49:33;;;;;;;5.07;3.60;;;;;;;20.01;71.76;100732.25;4996129;28;20070;-81
2021/07/19 01:52:02;;;;;;;4.80;3.60;;;;;;;19.93;71.95;100735.56;4992381;28;20062;-81
2021/07/19 01:54:32;;;;;;;6.30;4.13;;;;;;;19.87;72.48;100733.38;4980569;28;20061;-82
2021/07/19 01:57:01;;;;;;;4.95;4.05;;;;;;;19.85;72.31;100732.63;4947179;29;20355;-82
2021/07/19 01:59:30;;;;;;;5.03;3.85;;;;;;;19.84;72.27;100736.28;4961443;28;20487;-82
2021/07/19 02:01:59;;;;;;;;;;;;;;;19.84;72.62;100731.78;4952342;28;20058;-82
2021/07/19 02:04:26;;;;;;;4.90;3.88;;;;;;;19.80;72.91;100724.09;4962805;28;19932;-82
2021/07/19 02:06:53;;;;;;;6.03;4.30;;;;;;;19.80;73.09;100733.03;4942619;29;20055;-82
2021/07/19 02:09:21;;;;;;;6.22;3.88;;;;;;;19.81;72.66;100728.50;4962694;29;20070;-81
2021/07/19 02:11:48;;;;;;;7.63;4.47;;;;;;;19.77;72.91;100725.19;4968208;28;20376;-81
2021/07/19 02:14:17;;;;;;;4.75;4.25;;;;;;;19.72;73.26;100722.00;4975657;28;20094;-82
2021/07/19 02:16:50;;;;;;;7.65;3.92;;;;;;;19.67;73.19;100740.34;4980349;28;20114;-81
2021/07/19 02:19:18;;;;;;;7.95;3.78;;;;;;;19.61;74.01;100739.00;4946562;29;20059;-81
2021/07/19 02:21:45;;;;;;;7.18;3.95;;;;;;;19.59;73.81;100735.56;4965405;28;20066;-81
2021/07/19 02:24:13;;;;;;;4.20;3.80;;;;;;;19.57;73.84;100736.66;4970202;29;20078;-82
2021/07/19 02:26:41;;;;;;;5.50;3.95;;;;;;;19.55;74.22;100741.31;4956231;28;20078;-81
2021/07/19 02:29:10;;;;;;;4.57;3.60;;;;;;;19.52;74.33;100725.41;4975479;28;20080;-82
2021/07/19 02:31:39;;;;;;;3.97;3.60;;;;;;;19.49;74.34;100741.78;4970957;28;20116;-81
2021/07/19 02:34:06;;;;;;;6.13;3.95;;;;;;;19.41;74.92;100739.66;4971081;29;20083;-81
2021/07/19 02:36:34;;;;;;;5.25;4.00;;;;;;;19.37;75.14;100737.34;4964399;29;20086;-81
2021/07/19 02:39:00;;;;;;;6.07;3.88;;;;;;;19.36;75.47;100741.84;4967185;28;20051;-81
2021/07/19 02:41:28;;;;;;;5.80;4.30;;;;;;;19.34;75.38;100742.97;4969749;28;20154;-81
2021/07/19 02:43:58;;;;;;;3.95;3.50;;;;;;;19.31;75.23;100749.44;4956847;29;20426;-81
2021/07/19 02:46:30;;;;;;;5.95;4.32;;;;;;;19.31;75.42;100754.81;4958652;29;20062;-81
2021/07/19 02:48:58;;;;;;;4.70;4.13;;;;;;;19.24;75.82;100749.03;4942590;29;20164;-81
2021/07/19 02:51:29;;;;;;;5.07;4.00;;;;;;;19.20;75.93;100755.59;4962024;28;20138;-82
2021/07/19 02:53:59;;;;;;;5.05;4.20;;;;;;;19.14;76.22;100753.41;4958556;28;20084;-82
2021/07/19 02:56:29;;;;;;;7.20;4.20;;;;;;;19.15;76.43;100751.59;4955583;29;20055;-81
2021/07/19 02:58:55;;;;;;;5.95;4.25;;;;;;;19.11;76.62;100759.00;4963244;28;20058;-81
2021/07/19 03:01:24;;;;;;;5.88;4.00;;;;;;;19.10;76.53;100749.25;4952070;28;20054;-81
2021/07/19 03:03:54;;;;;;;8.45;4.38;;;;;;;19.10;76.75;100757.31;4956511;29;20053;-81
2021/07/19 03:06:25;;;;;;;5.38;3.97;;;;;;;19.06;77.09;100749.59;4960724;28;20050;-81
2021/07/19 03:08:53;;;;;;;5.22;4.28;;;;;;;19.03;77.65;100752.53;4965951;29;20047;-82
2021/07/19 03:11:35;;;;;;;5.15;3.90;;;;;;;19.03;77.69;100752.53;4969412;28;20078;-82
2021/07/19 03:14:06;;;;;;;5.95;4.43;;;;;;;19.03;77.88;100744.47;4977718;28;20460;-81
2021/07/19 03:16:33;;;;;;;6.50;3.90;;;;;;;19.03;78.04;100750.72;4989160;28;20059;-81
2021/07/19 03:19:03;;;;;;;5.63;4.45;;;;;;;19.05;77.98;100756.78;4968648;28;20765;-81
2021/07/19 03:21:33;;;;;;;6.93;4.03;;;;;;;19.02;77.56;100754.38;4962894;28;20052;-81
2021/07/19 03:24:04;;;;;;;7.30;4.68;;;;;;;19.02;77.94;100759.72;4962549;28;20371;-82
2021/07/19 03:26:34;;;;;;;8.48;4.55;;;;;;;19.01;77.82;100754.47;4963990;28;20059;-81
2021/07/19 03:29:02;;;;;;;5.40;4.20;;;;;;;19.01;78.12;100757.16;4967641;29;20066;-81
2021/07/19 03:31:32;;;;;;;8.80;4.35;;;;;;;18.99;78.37;100759.97;4961788;28;20105;-81
2021/07/19 03:33:59;;;;;;;6.97;4.47;;;;;;;18.97;78.54;100761.91;4967744;28;20430;-81
2021/07/19 03:36:30;;;;;;;5.28;4.20;;;;;;;18.97;78.50;100764.59;4964861;29;20054;-82
2021/07/19 03:38:59;;;;;;;8.95;4.72;;;;;;;18.94;78.71;100762.13;4968418;29;20110;-81
2021/07/19 03:41:29;;;;;;;7.47;4.07;;;;;;;18.89;78.89;100765.16;4977627;29;20074;-81
2021/07/19 03:43:57;;;;;;;6.43;4.30;;;;;;;18.88;78.94;100763.47;4972605;28;20058;-81
2021/07/19 03:46:24;;;;;;;7.65;4.40;;;;;;;18.91;79.04;100762.34;4990699;28;20070;-81
2021/07/19 03:48:52;;;;;;;6.95;4.40;;;;;;;18.89;78.84;100761.59;4988485;28;20123;-80
2021/07/19 03:51:19;;;;;;;5.40;4.00;;;;;;;18.90;79.29;100763.31;4987878;28;20054;-81
2021/07/19 03:53:46;;;;;;;6.20;4.35;;;;;;;18.91;79.06;100765.91;4962535;29;20066;-81
2021/07/19 03:56:13;;;;;;;4.40;4.00;;;;;;;18.94;79.06;100775.53;4964007;29;20061;-81
2021/07/19 03:58:40;;;;;;;5.18;4.38;;;;;;;18.97;79.15;100769.09;4956158;28;20072;-80
2021/07/19 04:01:08;;;;;;;8.38;4.25;;;;;;;18.97;79.20;100763.72;4957600;29;20134;-81
2021/07/19 04:03:50;;;;;;;5.97;4.30;;;;;;;19.00;78.75;100769.72;4958269;29;20062;-80
2021/07/19 04:06:18;;;;;;;8.32;4.65;;;;;;;19.04;78.30;100773.91;4940852;29;20052;-81
2021/07/19 04:08:46;;;;;;;5.88;4.13;;;;;;;19.02;78.50;100774.97;4959793;28;20075;-81
2021/07/19 04:11:15;;;;;;;5.40;4.45;;;;;;;18.96;78.58;100770.06;4984053;28;20055;-80
2021/07/19 04:13:43;;;;;;;5.10;4.20;;;;;;;19.02;78.90;100786.56;4976771;29;20048;-81
2021/07/19 04:16:14;;;;;;;6.25;4.43;;;;;;;18.98;78.69;100778.84;4972730;28;20049;-81
2021/07/19 04:18:42;;;;;;;6.68;4.43;;;;;;;19.00;78.95;100788.50;4970697;29;20047;-81
2021/07/19 04:21:11;;;;;;;6.55;4.32;;;;;;;18.98;79.13;100785.09;4977442;28;20059;-80
2021/07/19 04:23:38;;;;;;;5.82;4.60;;;;;;;19.01;78.83;100800.97;4977790;28;20095;-80
2021/07/19 04:26:05;;;;;;;6.05;4.47;;;;;;;19.03;79.07;100804.38;4977423;28;20111;-80
2021/07/19 04:28:33;;;;;;;6.32;4.53;;;;;;;19.03;78.81;100803.53;4976924;28;20061;-80
2021/07/19 04:31:00;;;;;;;7.95;4.60;;;;;;;19.05;79.03;100804.25;4958615;28;20348;-81
2021/07/19 04:33:27;;;;;;;8.80;4.75;;;;;;;19.05;79.23;100805.09;4943050;29;20047;-81
2021/07/19 04:35:54;;;;;;;6.35;4.45;;;;;;;19.05;78.88;100807.78;4943144;29;20056;-81
2021/07/19 04:38:22;;;;;;;5.35;4.53;;;;;;;19.10;78.97;100802.94;4950965;29;20051;-81
2021/07/19 04:40:53;;;;;;;5.75;4.32;;;;;;;19.11;78.87;100796.59;4962261;29;20047;-81
2021/07/19 04:43:21;;;;;;;5.05;4.10;;;;;;;19.15;78.99;100799.91;4956310;29;20051;-81
2021/07/19 04:45:50;;;;;;;7.07;4.65;;;;;;;19.18;78.82;100803.22;4962164;28;20052;-81
2021/07/19 04:48:18;;;;;;;11.57;5.30;;;;;;;19.17;78.79;100806.88;4963624;28;20083;-81
2021/07/19 04:50:46;;;;;;;7.80;4.43;;;;;;;19.17;79.28;100809.56;4965065;29;20082;-81
2021/07/19 04:53:14;;;;;;;6.22;4.93;;;;;;;19.20;78.78;100814.66;4974084;29;20094;-81
2021/07/19 04:55:46;;;;;;;6.70;5.03;;;;;;;19.21;79.29;100819.06;4963961;28;20086;-82
2021/07/19 04:58:16;;;;;;;7.20;4.40;;;;;;;19.23;78.92;100811.75;4961237;29;20082;-82
2021/07/19 05:00:47;;;;;;;7.03;4.47;;;;;;;19.25;78.87;100817.88;4961263;28;20142;-82
2021/07/19 05:03:16;;;;;;;8.88;4.53;;;;;;;19.27;78.83;100821.31;4963362;28;20078;-81
2021/07/19 05:05:46;;;;;;;5.70;4.15;;;;;;;19.30;78.96;100814.00;4965924;28;20082;-81
2021/07/19 05:08:18;;;;;;;6.53;4.45;;;;;;;19.31;78.96;100804.97;4966319;29;20399;-81
2021/07/19 05:10:45;;;;;;;6.68;4.28;;;;;;;19.32;78.89;100804.00;4962114;28;20067;-81
2021/07/19 05:13:14;;;;;;;8.00;4.78;;;;;;;19.36;79.35;100808.16;4970504;28;20106;-81
2021/07/19 05:15:41;;;;;;;7.85;4.78;;;;;;;19.36;78.96;100811.66;4980959;28;20057;-82
2021/07/19 05:18:09;;;;;;;6.82;4.55;;;;;;;19.37;78.92;100809.84;4981760;28;20066;-82
2021/07/19 05:20:37;;;;;;;9.38;5.20;;;;;;;19.38;79.17;100817.78;4984440;28;20090;-82
2021/07/19 05:23:04;;;;;;;9.27;5.15;;;;;;;19.40;79.14;100818.53;4983437;28;20051;-81
2021/07/19 05:25:32;;;;;;;7.03;4.85;;;;;;;19.42;78.93;100815.72;4983087;28;20051;-81
2021/07/19 05:28:05;;;;;;;7.55;4.75;;;;;;;19.51;79.14;100821.28;4973522;28;20110;-81
2021/07/19 05:30:34;;;;;;;9.82;5.15;;;;;;;19.60;78.63;100819.72;4963050;29;20067;-81
2021/07/19 05:33:01;;;;;;;8.67;4.50;;;;;;;19.62;78.35;100825.81;4963957;29;20134;-82
2021/07/19 05:35:30;;;;;;;9.73;4.60;;;;;;;19.67;78.33;100825.47;4965648;29;20046;-81
2021/07/19 05:38:00;;;;;;;10.23;5.50;;;;;;;19.67;78.16;100826.34;4967465;29;20043;-82
2021/07/19 05:40:28;;;;;;;8.68;5.03;;;;;;;19.67;78.25;100825.47;4969799;28;20328;-81
2021/07/19 05:42:54;;;;;;;6.90;4.53;;;;;;;19.66;77.69;100839.88;4979211;28;20057;-81
2021/07/19 05:45:21;;;;;;;7.30;5.00;;;;;;;19.57;78.79;100838.75;4963557;28;20051;-82
2021/07/19 05:47:48;;;;;;;6.18;4.70;;;;;;;19.54;78.84;100829.09;4964442;28;20114;-81
2021/07/19 05:50:15;;;;;;;6.63;4.72;;;;;;;19.56;79.03;100832.50;4963030;28;20074;-82
2021/07/19 05:52:41;;;;;;;6.45;4.82;;;;;;;19.60;78.93;100838.50;4962775;28;20513;-82
2021/07/19 05:55:09;;;;;;;9.13;4.85;;;;;;;19.61;78.31;100827.66;4962410;28;20061;-82
2021/07/19 05:57:36;;;;;;;7.95;5.22;;;;;;;19.59;78.05;100818.00;4960808;29;20069;-82
2021/07/19 06:00:11;;;;;;;6.63;4.40;;;;;;;19.67;77.95;100831.72;4957413;29;20054;-82
2021/07/19 06:02:37;;;;;;;7.38;5.00;;;;;;;19.76;77.18;100835.50;4943081;29;20083;-81
2021/07/19 06:05:07;;;;;;;6.28;4.75;;;;;;;19.80;76.31;100837.81;4945225;29;20083;-81
2021/07/19 06:07:34;;;;;;;7.32;4.55;;;;;;;19.89;75.61;100841.59;4946481;29;20054;-81
2021/07/19 06:10:04;;;;;;;9.93;5.00;;;;;;;20.00;75.39;100835.38;4942476;29;20070;-81
2021/07/19 06:12:33;;;;;;;6.82;4.13;;;;;;;20.16;74.66;100828.66;4968179;28;20080;-81
2021/07/19 06:15:00;;;;;;;10.55;5.00;;;;;;;20.29;73.22;100836.63;4980711;28;20115;-82
2021/07/19 06:17:27;;;;;;;13.10;5.38;;;;;;;20.42;72.27;100829.31;4962841;28;20111;-81
2021/07/19 06:19:54;;;;;;;6.32;4.43;;;;;;;20.70;72.01;100835.09;4965598;29;20070;-82
2021/07/19 06:22:20;;;;;;;6.53;3.95;;;;;;;21.01;68.80;100837.81;4965937;29;20059;-81
2021/07/19 06:24:50;;;;;;;7.10;4.22;;;;;;;21.37;66.93;100838.44;4949170;29;20082;-82
2021/07/19 06:27:17;;;;;;;7.25;3.97;;;;;;;21.72;66.31;100827.34;4966605;28;20778;-81
2021/07/19 06:29:45;;;;;;;5.60;3.80;;;;;;;22.13;64.36;100839.06;4964538;28;20054;-81
2021/07/19 06:32:12;;;;;;;7.97;4.03;;;;;;;22.46;62.33;100833.38;4970396;28;20137;-81
2021/07/19 06:34:38;;;;;;;6.72;3.65;;;;;;;22.82;59.72;100844.56;4969869;28;20577;-82
2021/07/19 06:37:05;;;;;;;6.05;3.85;;;;;;;22.60;58.17;100834.81;4969009;28;20051;-81
2021/07/19 06:39:34;;;;;;;7.32;3.50;;;;;;;22.82;58.37;100839.16;4981576;28;20553;-82
2021/07/19 06:42:00;;;;;;;9.73;3.22;;;;;;;23.04;56.49;100855.09;4964017;28;20044;-82
2021/07/19 06:44:28;;;;;;;6.45;3.50;;;;;;;22.99;57.04;100844.69;4970578;28;20054;-82
2021/07/19 06:46:57;;;;;;;6.30;3.95;;;;;;;22.80;56.40;100843.84;4965791;29;20094;-82
2021/07/19 06:49:27;;;;;;;4.95;3.35;;;;;;;22.83;56.56;100840.84;4968191;29;20047;-82
2021/07/19 06:51:54;;;;;;;8.20;3.50;;;;;;;23.08;56.26;100840.31;4957300;29;20047;-81
2021/07/19 06:54:24;;;;;;;6.90;3.83;;;;;;;23.42;55.04;100843.44;4954392;29;20048;-81
2021/07/19 06:56:50;;;;;;;5.90;3.13;;;;;;;23.58;55.26;100838.34;4958869;29;20095;-81
2021/07/19 06:59:17;;;;;;;5.47;3.47;;;;;;;23.40;56.42;100840.88;4979690;28;20043;-81
2021/07/19 07:01:44;;;;;;;8.20;3.80;;;;;;;23.54;55.55;100841.47;4985727;28;20062;-81
2021/07/19 07:04:11;;;;;;;6.07;3.55;;;;;;;23.66;54.58;100835.75;4979950;28;20039;-80
2021/07/19 07:06:38;;;;;;;5.63;3.47;;;;;;;23.66;54.62;100834.88;4972652;28;20051;-81
2021/07/19 07:09:05;;;;;;;10.68;3.67;;;;;;;23.59;55.05;100845.44;4972112;28;20110;-82
2021/07/19 07:11:32;;;;;;;6.45;3.60;;;;;;;23.72;54.55;100837.88;4979832;28;20102;-82
2021/07/19 07:13:59;;;;;;;6.05;3.88;;;;;;;23.80;53.98;100837.13;4999486;28;20045;-80
2021/07/19 07:16:27;;;;;;;7.60;3.50;;;;;;;23.88;53.92;100829.16;4979868;28;20047;-81
2021/07/19 07:18:55;;;;;;;5.63;3.85;;;;;;;23.82;54.04;100834.28;4974335;28;20054;-81
2021/07/19 07:21:23;;;;;;;5.25;3.63;;;;;;;23.70;53.16;100825.50;4952174;29;20566;-80
2021/07/19 07:23:50;;;;;;;7.10;3.67;;;;;;;23.41;54.23;100837.19;4959495;28;20047;-80
2021/07/19 07:26:18;;;;;;;6.63;4.25;;;;;;;23.33;55.64;100839.72;4951802;29;20599;-81
2021/07/19 07:28:47;;;;;;;5.97;4.22;;;;;;;23.22;54.99;100845.28;4968185;28;20043;-80
2021/07/19 07:31:14;;;;;;;7.13;3.95;;;;;;;23.03;55.40;100840.72;4947578;29;20217;-81
2021/07/19 07:33:46;;;;;;;6.70;3.90;;;;;;;23.06;55.82;100843.16;4959446;29;20093;-81
2021/07/19 07:36:18;;;;;;;7.47;4.13;;;;;;;23.26;55.93;100840.47;4961690;29;20055;-81
2021/07/19 07:38:45;;;;;;;10.63;3.83;;;;;;;23.44;54.82;100845.00;4946312;29;20059;-82
2021/07/19 07:41:12;;;;;;;9.63;4.07;;;;;;;23.74;55.07;100844.00;4967417;29;20130;-82
2021/07/19 07:43:42;;;;;;;9.30;3.80;;;;;;;23.70;53.91;100847.13;4965481;29;20051;-82
2021/07/19 07:46:09;;;;;;;6.53;3.40;;;;;;;23.79;53.41;100836.28;4969553;29;20032;-82
2021/07/19 07:48:41;;;;;;;13.18;3.92;;;;;;;23.94;53.64;100838.50;4961871;29;20055;-81
2021/07/19 07:51:09;;;;;;;6.28;3.70;;;;;;;24.21;52.23;100843.13;4968151;29;20593;-81
2021/07/19 07:53:37;;;;;;;6.40;3.80;;;;;;;24.42;51.71;100843.75;4954065;29;20039;-80
2021/07/19 07:56:04;;;;;;;5.38;3.58;;;;;;;24.51;50.42;100837.47;4972383;28;20118;-81
2021/07/19 07:58:33;;;;;;;6.38;3.83;;;;;;;24.13;51.42;100844.72;4968640;28;20081;-81
2021/07/19 08:01:02;;;;;;;9.45;3.95;;;;;;;24.17;52.09;100847.13;4971376;28;20053;-81
2021/07/19 08:03:30;;;;;;;8.45;4.13;;;;;;;24.27;51.62;100842.53;4974675;28;20083;-80
2021/07/19 08:06:00;;;;;;;7.07;4.07;;;;;;;24.33;50.61;100837.41;4962921;29;20130;-80
2021/07/19 08:08:31;;;;;;;7.65;4.13;;;;;;;24.05;51.03;100850.03;4964882;29;20051;-81
2021/07/19 08:10:57;;;;;;;10.23;4.50;;;;;;;23.75;52.10;100848.41;4962617;29;20047;-81
2021/07/19 08:13:25;;;;;;;6.82;3.80;;;;;;;23.30;53.50;100840.00;4957252;28;20047;-81
2021/07/19 08:15:53;;;;;;;6.63;4.18;;;;;;;22.93;55.23;100845.28;4970823;28;20050;-81
2021/07/19 08:18:19;;;;;;;8.57;4.20;;;;;;;22.85;55.72;100845.13;4965174;29;20065;-82
2021/07/19 08:20:46;;;;;;;7.70;4.05;;;;;;;22.98;56.49;100848.41;4965380;29;20047;-81
2021/07/19 08:23:13;;;;;;;8.95;4.40;;;;;;;23.18;54.85;100849.25;4951533;29;20071;-81
2021/07/19 08:25:40;;;;;;;6.45;3.95;;;;;;;23.56;54.14;100847.56;4947807;29;20054;-82
2021/07/19 08:28:07;;;;;;;4.43;3.60;;;;;;;23.71;52.65;100846.97;4943437;29;20070;-81
2021/07/19 08:30:35;;;;;;;6.38;4.32;;;;;;;23.79;53.44;100836.28;4949796;29;20043;-81
2021/07/19 08:33:02;;;;;;;7.20;4.05;;;;;;;24.12;52.67;100842.16;4950036;29;20050;-81
2021/07/19 08:35:29;;;;;;;12.40;4.47;;;;;;;24.23;52.52;100838.44;4939442;29;20072;-82
2021/07/19 08:38:00;;;;;;;4.88;3.85;;;;;;;24.21;51.95;100837.72;4950380;29;20050;-81
2021/07/19 08:40:27;;;;;;;5.95;4.20;;;;;;;24.13;52.53;100828.47;4950408;29;20500;-82
2021/07/19 08:42:55;;;;;;;8.23;4.40;;;;;;;24.05;50.88;100831.09;4952789;29;20057;-82
2021/07/19 08:45:23;;;;;;;6.43;4.25;;;;;;;23.77;52.43;100823.91;4947661;29;20120;-82
2021/07/19 08:47:52;;;;;;;7.78;4.45;;;;;;;23.83;52.66;100812.50;4956536;29;20114;-82
2021/07/19 08:50:20;;;;;;;9.15;4.38;;;;;;;23.83;51.93;100820.63;4957433;29;20059;-81
2021/07/19 08:52:53;;;;;;;5.90;4.03;;;;;;;23.76;52.28;100817.66;4950582;29;20056;-81
2021/07/19 08:55:23;;;;;;;6.93;4.60;;;;;;;23.83;51.93;100820.63;4952769;29;20108;-81
2021/07/19 08:57:53;;;;;;;4.87;4.10;;;;;;;23.97;50.62;100812.03;4933739;29;20071;-81
2021/07/19 09:00:22;;;;;;;7.93;4.30;;;;;;;23.97;51.79;100806.59;4946339;29;20051;-82
2021/07/19 09:02:52;;;;;;;7.18;4.63;;;;;;;24.15;51.31;100809.38;4957345;29;20110;-81
2021/07/19 09:05:30;;;;;;;5.90;4.60;;;;;;;24.06;50.76;100819.25;4954961;29;20043;-81
2021/07/19 09:07:58;;;;;;;7.45;4.97;;;;;;;23.95;51.28;100805.06;4925931;29;20593;-81
2021/07/19 09:10:39;;;;;;;6.35;5.18;;;;;;;23.89;52.16;100806.50;4949997;29;20042;-81
2021/07/19 09:13:17;;;;;;;9.38;5.25;;;;;;;23.93;50.90;100807.91;4960363;29;20047;-80
2021/07/19 09:15:58;;;;;;;8.13;6.03;;;;;;;23.79;50.67;100803.81;4946490;29;20099;-81
2021/07/19 09:18:30;;;;;;;9.68;6.63;;;;;;;23.73;51.35;100799.03;4932892;29;20485;-81
2021/07/19 09:21:30;;;;;;;8.82;6.90;;;;;;;23.72;51.47;100809.97;4956292;29;20699;-83
2021/07/19 09:24:14;;;;;;;13.65;7.65;;;;;;;23.66;51.60;100797.88;4969146;29;20114;-81
2021/07/19 09:26:43;;;;;;;11.07;8.05;;;;;;;23.61;50.72;100796.66;4969050;28;20066;-81
2021/07/19 09:29:16;;;;;;;10.32;7.00;;;;;;;23.50;51.01;100803.00;4967720;28;20116;-81
2021/07/19 09:31:52;;;;;;;12.77;7.57;;;;;;;23.27;50.59;100796.25;4973647;29;20556;-80
2021/07/19 09:34:33;;;;;;;11.27;7.95;;;;;;;23.00;51.65;100794.25;4965370;29;20075;-81
2021/07/19 09:37:09;;;;;;;10.65;7.82;;;;;;;23.07;51.67;100800.78;4968302;28;20061;-81
2021/07/19 09:40:07;;;;;;;10.77;8.32;;;;;;;22.91;51.19;100782.44;4969809;28;20111;-81
2021/07/19 09:42:46;;;;;;;11.95;8.82;;;;;;;22.92;51.77;100786.00;4970855;28;20078;-81
2021/07/19 09:45:28;;;;;;;11.43;8.52;;;;;;;22.91;50.71;100789.69;4971419;28;20062;-81
2021/07/19 09:48:04;;;;;;;12.63;9.00;;;;;;;22.89;50.70;100789.84;4970385;28;20035;-80
2021/07/19 09:50:53;;;;;;;12.85;9.02;;;;;;;22.76;51.16;100794.63;4968783;29;20052;-81
2021/07/19 09:53:41;;;;;;;14.45;10.07;;;;;;;22.65;51.54;100789.38;4975112;28;20052;-81
2021/07/19 09:56:20;;;;;;;15.15;9.23;;;;;;;22.76;52.22;100791.94;4977760;28;20079;-81
2021/07/19 09:59:04;;;;;;;16.90;10.05;;;;;;;22.73;51.48;100794.91;4978439;28;20051;-82
2021/07/19 10:01:35;;;;;;;12.63;9.85;;;;;;;22.65;51.46;100790.22;4967265;28;20055;-81
2021/07/19 10:04:03;;;;;;;11.98;9.38;;;;;;;22.54;51.33;100793.03;4972262;28;20048;-78
2021/07/19 10:06:31;;;;;;;12.25;9.73;;;;;;;22.53;51.37;100788.63;4973672;28;20051;-80
2021/07/19 10:08:59;;;;;;;13.75;9.75;;;;;;;22.61;51.81;100791.50;4979987;28;20062;-81
2021/07/19 10:11:31;;;;;;;16.58;10.07;;;;;;;22.78;51.59;100789.97;4979665;28;20048;-81
2021/07/19 10:13:59;;;;;;;15.63;10.10;;;;;;;22.81;51.85;100787.00;4967198;28;20060;-81
2021/07/19 10:16:31;;;;;;;14.70;10.10;;;;;;;22.92;52.13;100781.47;4966530;28;20161;-82
2021/07/19 10:18:59;;;;;;;14.10;10.27;;;;;;;23.05;51.55;100781.16;4964141;29;20051;-82
2021/07/19 10:21:30;;;;;;;12.73;10.02;;;;;;;23.06;51.46;100781.03;4968296;28;20085;-82
2021/07/19 10:24:12;;;;;;;17.70;10.68;;;;;;;23.17;51.05;100779.16;4959690;29;20050;-81
2021/07/19 10:26:39;;;;;;;15.40;10.90;;;;;;;23.25;50.05;100782.00;4956248;29;20406;-81
2021/07/19 10:29:09;;;;;;;13.55;10.63;;;;;;;23.08;49.60;100786.28;4944789;29;20048;-82
2021/07/19 10:31:36;;;;;;;13.23;10.18;;;;;;;22.97;49.91;100768.38;4954791;28;20055;-82
2021/07/19 10:34:05;;;;;;;12.90;9.93;;;;;;;23.04;49.62;100776.75;4962827;28;20061;-81
2021/07/19 10:36:38;;;;;;;15.10;10.93;;;;;;;23.15;49.66;100776.59;4959775;28;20053;-81
2021/07/19 10:39:13;;;;;;;16.38;11.20;;;;;;;23.31;50.22;100771.47;4960124;28;20047;-82
2021/07/19 10:41:40;;;;;;;14.77;10.55;;;;;;;23.41;49.67;100764.22;4957714;28;20059;-82
2021/07/19 10:44:09;;;;;;;15.20;11.18;;;;;;;23.42;49.63;100757.81;4962569;29;20058;-82
2021/07/19 10:46:36;;;;;;;15.60;11.73;;;;;;;23.56;48.75;100761.06;4955850;29;20118;-81
2021/07/19 10:49:05;;;;;;;16.30;11.35;;;;;;;23.39;49.43;100757.25;4962294;29;20142;-81
2021/07/19 10:51:46;;;;;;;16.70;11.63;;;;;;;23.58;49.68;100756.38;4960306;28;20470;-81
2021/07/19 10:54:19;;;;;;;15.95;11.18;;;;;;;23.71;48.91;100746.09;4960699;28;20881;-82
2021/07/19 10:56:47;;;;;;;14.43;11.07;;;;;;;23.82;49.45;100756.69;4962398;28;20577;-81
2021/07/19 10:59:26;;;;;;;13.35;10.48;;;;;;;23.83;47.81;100754.84;4963132;28;20031;-81
2021/07/19 11:01:55;;;;;;;14.30;11.02;;;;;;;23.97;47.65;100752.50;4963539;28;20053;-82
2021/07/19 11:04:23;;;;;;;15.53;10.53;;;;;;;23.94;46.72;100751.94;4962590;28;20122;-81
2021/07/19 11:06:58;;;;;;;13.80;10.23;;;;;;;23.95;46.71;100756.34;4956612;29;20055;-81
2021/07/19 11:09:36;;;;;;;13.68;10.50;;;;;;;23.94;47.03;100754.66;4957975;29;20039;-81
2021/07/19 11:12:16;;;;;;;14.38;11.30;;;;;;;23.99;47.35;100747.81;4959809;29;20129;-82
2021/07/19 11:15:11;;;;;;;15.38;11.45;;;;;;;24.05;48.49;100755.34;4958027;29;20069;-81
2021/07/19 11:17:39;;;;;;;15.95;11.85;;;;;;;24.24;47.66;100754.38;4970824;28;20122;-82
2021/07/19 11:20:15;;;;;;;16.00;11.43;;;;;;;24.29;48.03;100746.66;4959803;28;20059;-81
2021/07/19 11:22:44;;;;;;;16.73;12.00;;;;;;;24.32;47.21;100746.38;4957050;29;20158;-82
2021/07/19 11:25:14;;;;;;;16.15;11.48;;;;;;;24.26;47.72;100743.41;4965363;28;20074;-81
2021/07/19 11:27:45;;;;;;;;;;;;;;;24.44;47.02;100744.28;4968473;28;20119;-81
2021/07/19 11:30:22;;;;;;;16.05;12.15;;;;;;;24.61;46.84;100734.50;4986298;28;20017;-81
2021/07/19 11:32:51;;;;;;;17.42;12.25;;;;;;;24.66;47.14;100740.31;4974184;28;20066;-84
2021/07/19 11:35:22;;;;;;;16.17;12.40;;;;;;;24.44;47.21;100744.28;4974613;28;20081;-84